createdAt,value
2017-11-21T00:00:21.718Z,21.40
2017-11-21T00:02:49.287Z,22.40
2017-11-21T00:05:16.864Z,28.40
2017-11-21T00:07:44.466Z,21.23
2017-11-21T00:10:12.039Z,19.80
2017-11-21T00:12:39.604Z,25.70
2017-11-21T00:15:07.179Z,23.17
2017-11-21T00:17:34.743Z,26.83
2017-11-21T00:20:02.317Z,24.03
2017-11-21T00:22:32.870Z,27.80
2017-11-21T00:25:00.443Z,22.30
2017-11-21T00:27:28.016Z,25.40
2017-11-21T00:29:55.590Z,27.80
2017-11-21T00:32:23.162Z,21.97
2017-11-21T00:34:50.762Z,25.53
2017-11-21T00:37:18.321Z,19.80
2017-11-21T00:39:45.918Z,26.83
2017-11-21T00:42:13.482Z,27.17
2017-11-21T00:44:41.047Z,30.83
2017-11-21T00:47:08.609Z,20.90
2017-11-21T00:49:36.177Z,29.50
2017-11-21T00:52:03.746Z,25.60
2017-11-21T00:54:31.309Z,22.23
2017-11-21T00:56:58.870Z,23.57
2017-11-21T00:59:26.478Z,26.03
2017-11-21T01:01:54.045Z,21.97
2017-11-21T01:04:21.654Z,22.83
2017-11-21T01:06:49.233Z,26.97
2017-11-21T01:09:16.799Z,28.77
2017-11-21T01:11:44.364Z,26.03
2017-11-21T01:14:11.930Z,28.27
2017-11-21T01:16:39.497Z,21.63
2017-11-21T01:19:07.062Z,26.13
2017-11-21T01:21:34.627Z,26.53
2017-11-21T01:24:02.262Z,25.80
2017-11-21T01:26:29.831Z,32.00
2017-11-21T01:28:57.397Z,22.13
2017-11-21T01:31:24.957Z,20.90
2017-11-21T01:33:52.521Z,31.03
2017-11-21T01:36:20.126Z,24.87
2017-11-21T01:38:47.694Z,27.67
2017-11-21T01:41:15.264Z,22.10
2017-11-21T01:43:42.829Z,27.43
2017-11-21T01:46:10.392Z,19.07
2017-11-21T01:48:37.994Z,24.63
2017-11-21T01:51:05.566Z,19.23
2017-11-21T01:53:33.130Z,28.63
2017-11-21T01:56:00.702Z,22.00
2017-11-21T01:58:28.269Z,23.33
2017-11-21T02:00:55.834Z,27.00
2017-11-21T02:03:23.413Z,26.27
2017-11-21T02:05:51.011Z,23.90
2017-11-21T02:08:18.583Z,24.80
2017-11-21T02:10:46.182Z,23.57
2017-11-21T02:13:13.749Z,24.33
2017-11-21T02:15:41.313Z,26.17
2017-11-21T02:18:08.897Z,25.47
2017-11-21T02:20:36.466Z,24.23
2017-11-21T02:23:04.038Z,20.40
2017-11-21T02:25:31.599Z,26.57
2017-11-21T02:27:59.167Z,22.00
2017-11-21T02:30:26.726Z,23.03
2017-11-21T02:32:54.327Z,26.67
2017-11-21T02:35:21.894Z,24.03
2017-11-21T02:37:49.459Z,23.67
2017-11-21T02:40:17.025Z,27.77
2017-11-21T02:42:44.629Z,24.97
2017-11-21T02:45:12.195Z,26.20
2017-11-21T02:47:39.787Z,29.83
2017-11-21T02:50:07.896Z,24.40
2017-11-21T02:52:35.515Z,21.93
2017-11-21T02:55:03.085Z,27.03
2017-11-21T02:57:30.658Z,21.50
2017-11-21T02:59:58.221Z,29.33
2017-11-21T03:02:25.797Z,25.00
2017-11-21T03:04:53.398Z,22.73
2017-11-21T03:07:20.993Z,25.67
2017-11-21T03:09:48.565Z,26.17
2017-11-21T03:12:16.139Z,21.23
2017-11-21T03:14:43.745Z,23.17
2017-11-21T03:17:11.333Z,24.03
2017-11-21T03:19:38.908Z,24.27
2017-11-21T03:22:18.246Z,23.80
2017-11-21T03:28:01.589Z,21.57
2017-11-21T03:30:29.188Z,23.33
2017-11-21T03:32:56.807Z,22.83
2017-11-21T03:35:24.378Z,23.37
2017-11-21T03:37:52.025Z,23.73
2017-11-21T03:40:19.637Z,23.83
2017-11-21T03:42:47.206Z,22.30
2017-11-21T03:45:14.809Z,26.40
2017-11-21T03:47:42.373Z,22.87
2017-11-21T03:50:09.971Z,21.23
2017-11-21T03:52:37.587Z,27.20
2017-11-21T03:55:05.182Z,22.37
2017-11-21T03:57:32.777Z,19.00
2017-11-21T04:00:00.342Z,19.50
2017-11-21T04:02:27.945Z,23.20
2017-11-21T04:04:55.515Z,22.90
2017-11-21T04:07:23.133Z,23.30
2017-11-21T04:09:50.693Z,23.97
2017-11-21T04:12:18.258Z,25.17
2017-11-21T04:14:45.825Z,24.43
2017-11-21T04:17:13.416Z,24.13
2017-11-21T04:19:41.052Z,27.07
2017-11-21T04:22:08.623Z,22.70
2017-11-21T04:24:36.233Z,24.87
2017-11-21T04:27:03.811Z,24.30
2017-11-21T04:29:31.413Z,23.17
2017-11-21T04:31:58.979Z,26.70
2017-11-21T04:34:26.547Z,28.37
2017-11-21T04:36:54.122Z,32.40
2017-11-21T04:39:21.696Z,28.03
2017-11-21T04:41:49.294Z,27.23
2017-11-21T04:44:17.648Z,29.07
2017-11-21T04:46:45.217Z,25.93
2017-11-21T04:49:12.792Z,28.10
2017-11-21T04:51:40.379Z,27.37
2017-11-21T04:54:07.952Z,24.03
2017-11-21T04:56:35.519Z,26.80
2017-11-21T04:59:03.103Z,24.93
2017-11-21T05:01:30.670Z,28.53
2017-11-21T05:03:58.248Z,24.60
2017-11-21T05:06:25.820Z,23.33
2017-11-21T05:08:53.412Z,27.30
2017-11-21T05:11:21.232Z,27.30
2017-11-21T05:13:48.820Z,28.60
2017-11-21T05:16:16.394Z,25.43
2017-11-21T05:18:43.988Z,28.97
2017-11-21T05:21:11.588Z,28.27
2017-11-21T05:23:39.167Z,24.30
2017-11-21T05:26:06.741Z,28.42
2017-11-21T05:28:34.310Z,28.07
2017-11-21T05:31:01.884Z,31.13
2017-11-21T05:33:40.685Z,28.67
2017-11-21T05:36:08.264Z,25.33
2017-11-21T05:38:35.835Z,29.30
2017-11-21T05:41:03.407Z,25.67
2017-11-21T05:43:31.019Z,30.40
2017-11-21T05:45:58.600Z,45.30
2017-11-21T05:48:26.206Z,31.60
2017-11-21T05:50:53.778Z,32.27
2017-11-21T05:53:21.355Z,40.17
2017-11-21T05:55:48.927Z,35.17
2017-11-21T05:58:16.543Z,30.00
2017-11-21T06:00:44.124Z,35.17
2017-11-21T06:03:11.727Z,28.57
2017-11-21T06:05:39.304Z,30.53
2017-11-21T06:08:06.899Z,27.63
2017-11-21T06:10:34.490Z,30.17
2017-11-21T06:13:02.067Z,35.50
2017-11-21T06:15:29.683Z,31.33
2017-11-21T06:17:57.963Z,29.97
2017-11-21T06:20:25.538Z,34.57
2017-11-21T06:22:54.050Z,29.60
2017-11-21T06:25:21.866Z,33.70
2017-11-21T06:27:49.729Z,37.60
2017-11-21T06:30:18.909Z,31.13
2017-11-21T06:32:46.481Z,32.50
2017-11-21T06:35:14.090Z,32.83
2017-11-21T06:37:41.750Z,36.80
2017-11-21T06:40:09.324Z,38.97
2017-11-21T06:42:36.897Z,34.97
2017-11-21T06:45:04.467Z,25.20
2017-11-21T06:47:32.034Z,30.97
2017-11-21T06:49:59.661Z,28.13
2017-11-21T06:52:27.278Z,30.23
2017-11-21T06:54:54.843Z,27.57
2017-11-21T06:57:22.415Z,26.17
2017-11-21T06:59:49.978Z,26.50
2017-11-21T07:02:17.549Z,29.10
2017-11-21T07:04:45.129Z,23.27
2017-11-21T07:07:12.696Z,29.37
2017-11-21T07:09:40.261Z,30.60
2017-11-21T07:12:07.826Z,31.73
2017-11-21T07:14:35.386Z,28.10
2017-11-21T07:17:02.991Z,25.57
2017-11-21T07:19:30.586Z,26.00
2017-11-21T07:21:58.196Z,27.73
2017-11-21T07:24:25.811Z,28.53
2017-11-21T07:26:53.390Z,22.87
2017-11-21T07:29:20.961Z,23.13
2017-11-21T07:31:48.531Z,25.00
2017-11-21T07:34:16.102Z,26.33
2017-11-21T07:36:43.675Z,32.23
2017-11-21T07:39:11.239Z,22.90
2017-11-21T07:41:38.835Z,24.30
2017-11-21T07:44:06.435Z,27.37
2017-11-21T07:46:34.054Z,22.00
2017-11-21T07:49:01.630Z,25.50
2017-11-21T07:51:29.205Z,21.00
2017-11-21T07:53:56.840Z,21.60
2017-11-21T07:56:24.463Z,24.23
2017-11-21T07:58:52.023Z,26.53
2017-11-21T08:01:19.626Z,27.17
2017-11-21T08:03:47.229Z,20.07
2017-11-21T08:06:14.793Z,24.57
2017-11-21T08:08:42.363Z,27.47
2017-11-21T08:11:10.072Z,26.23
2017-11-21T08:13:37.638Z,25.93
2017-11-21T08:16:05.299Z,26.23
2017-11-21T08:18:32.958Z,29.10
2017-11-21T08:21:00.618Z,24.97
2017-11-21T08:23:28.201Z,27.73
2017-11-21T08:25:55.774Z,26.97
2017-11-21T08:28:23.410Z,24.47
2017-11-21T08:30:50.999Z,51.03
2017-11-21T08:33:18.570Z,29.57
2017-11-21T08:35:46.190Z,29.63
2017-11-21T08:38:13.767Z,19.67
2017-11-21T08:40:41.346Z,26.50
2017-11-21T08:43:08.914Z,21.57
2017-11-21T08:45:36.518Z,22.90
2017-11-21T08:48:04.084Z,19.30
2017-11-21T08:50:31.656Z,22.63
2017-11-21T08:52:59.230Z,22.20
2017-11-21T08:55:26.795Z,22.50
2017-11-21T08:57:54.365Z,23.30
2017-11-21T09:00:21.930Z,25.97
2017-11-21T09:02:49.498Z,23.97
2017-11-21T09:05:17.062Z,23.50
2017-11-21T09:07:44.628Z,20.43
2017-11-21T09:10:12.196Z,24.53
2017-11-21T09:12:39.762Z,24.07
2017-11-21T09:15:07.365Z,18.37
2017-11-21T09:17:34.936Z,23.30
2017-11-21T09:20:02.549Z,22.47
2017-11-21T09:22:30.115Z,22.70
2017-11-21T09:24:57.677Z,19.50
2017-11-21T09:27:25.238Z,20.50
2017-11-21T09:29:52.814Z,21.60
2017-11-21T09:32:20.378Z,20.90
2017-11-21T09:34:47.955Z,18.20
2017-11-21T09:37:15.528Z,16.77
2017-11-21T09:39:43.095Z,21.23
2017-11-21T09:42:10.666Z,21.87
2017-11-21T09:44:38.231Z,18.67
2017-11-21T09:47:05.794Z,21.87
2017-11-21T09:49:33.358Z,21.00
2017-11-21T09:52:00.959Z,20.23
2017-11-21T09:54:28.522Z,16.90
2017-11-21T09:56:56.138Z,17.10
2017-11-21T09:59:23.721Z,18.20
2017-11-21T10:01:51.290Z,17.43
2017-11-21T10:04:18.851Z,13.67
2017-11-21T10:06:46.418Z,19.40
2017-11-21T10:09:14.009Z,16.00
2017-11-21T10:11:41.578Z,13.30
2017-11-21T10:14:09.147Z,13.87
2017-11-21T10:16:36.748Z,11.83
2017-11-21T10:19:04.317Z,14.20
2017-11-21T10:21:31.890Z,15.37
2017-11-21T10:23:59.451Z,14.03
2017-11-21T10:26:27.021Z,13.03
2017-11-21T10:28:54.587Z,14.57
2017-11-21T10:31:22.146Z,11.60
2017-11-21T10:33:49.709Z,11.17
2017-11-21T10:36:17.318Z,13.10
2017-11-21T10:38:44.877Z,11.17
2017-11-21T10:41:12.449Z,9.83
2017-11-21T10:43:40.014Z,11.20
2017-11-21T10:46:07.581Z,13.80
2017-11-21T10:48:35.146Z,9.50
2017-11-21T10:51:02.715Z,10.93
2017-11-21T10:53:30.310Z,9.20
2017-11-21T10:55:57.875Z,10.67
2017-11-21T10:58:25.439Z,10.60
2017-11-21T11:00:52.997Z,8.67
2017-11-21T11:03:20.634Z,8.13
2017-11-21T11:05:48.199Z,10.20
2017-11-21T11:08:15.772Z,8.43
2017-11-21T11:10:43.344Z,11.23
2017-11-21T11:13:10.907Z,8.83
2017-11-21T11:15:38.507Z,10.60
2017-11-21T11:18:06.082Z,10.67
2017-11-21T11:20:33.636Z,11.53
2017-11-21T11:23:01.202Z,13.90
2017-11-21T11:25:28.762Z,11.80
2017-11-21T11:27:56.321Z,9.73
2017-11-21T11:30:23.894Z,9.30
2017-11-21T11:32:51.459Z,7.33
2017-11-21T11:35:19.026Z,8.10
2017-11-21T11:37:46.599Z,7.83
2017-11-21T11:40:14.157Z,8.93
2017-11-21T11:42:41.753Z,7.43
2017-11-21T11:45:09.314Z,7.40
2017-11-21T11:47:36.912Z,7.20
2017-11-21T11:50:04.478Z,6.90
2017-11-21T11:52:32.087Z,6.43
2017-11-21T11:54:59.650Z,5.50
2017-11-21T11:57:27.212Z,8.30
2017-11-21T11:59:54.773Z,6.03
2017-11-21T12:02:22.334Z,8.10
2017-11-21T12:04:49.891Z,7.90
2017-11-21T12:07:17.502Z,5.57
2017-11-21T12:09:45.064Z,5.87
2017-11-21T12:12:12.622Z,6.70
2017-11-21T12:14:40.174Z,4.60
2017-11-21T12:17:07.728Z,8.30
2017-11-21T12:19:35.291Z,7.37
2017-11-21T12:22:02.854Z,7.33
2017-11-21T12:24:30.433Z,7.40
2017-11-21T12:26:57.999Z,7.80
2017-11-21T12:29:25.571Z,7.00
2017-11-21T12:31:53.133Z,7.33
2017-11-21T12:34:20.734Z,7.77
2017-11-21T12:36:48.295Z,6.77
2017-11-21T12:39:15.853Z,4.90
2017-11-21T12:41:43.409Z,6.07
2017-11-21T12:44:10.991Z,4.63
2017-11-21T12:46:38.555Z,5.00
2017-11-21T12:49:06.117Z,5.87
2017-11-21T12:51:33.683Z,6.33
2017-11-21T12:54:01.250Z,5.50
2017-11-21T12:56:28.861Z,9.40
2017-11-21T12:58:56.436Z,6.80
2017-11-21T13:01:24.043Z,5.53
2017-11-21T13:03:51.605Z,8.00
2017-11-21T13:06:19.169Z,6.17
2017-11-21T13:08:46.731Z,4.87
2017-11-21T13:11:14.297Z,5.93
2017-11-21T13:13:41.900Z,6.20
2017-11-21T13:16:09.463Z,9.40
2017-11-21T13:18:37.057Z,6.93
2017-11-21T13:21:04.618Z,7.27
2017-11-21T13:23:32.219Z,6.00
2017-11-21T13:25:59.787Z,6.27
2017-11-21T13:28:27.354Z,6.63
2017-11-21T13:30:54.950Z,5.97
2017-11-21T13:33:22.529Z,5.70
2017-11-21T13:35:50.090Z,7.43
2017-11-21T13:38:17.645Z,6.33
2017-11-21T13:40:45.247Z,5.90
2017-11-21T13:43:12.810Z,6.60
2017-11-21T13:45:40.510Z,7.13
2017-11-21T13:48:08.067Z,7.37
2017-11-21T13:50:35.637Z,6.80
2017-11-21T13:53:03.209Z,8.17
2017-11-21T13:55:30.778Z,6.03
2017-11-21T13:57:58.356Z,6.10
2017-11-21T14:00:25.916Z,7.67
2017-11-21T14:02:53.518Z,10.13
2017-11-21T14:05:24.874Z,7.03
2017-11-21T14:07:52.488Z,9.03
2017-11-21T14:10:21.009Z,8.17
2017-11-21T14:12:48.595Z,10.87
2017-11-21T14:15:16.157Z,11.10
2017-11-21T14:17:43.722Z,9.83
2017-11-21T14:20:11.292Z,11.57
2017-11-21T14:22:38.855Z,11.70
2017-11-21T14:25:06.414Z,13.70
2017-11-21T14:27:34.018Z,12.83
2017-11-21T14:30:01.581Z,10.60
2017-11-21T14:32:29.158Z,13.67
2017-11-21T14:34:56.723Z,12.50
2017-11-21T14:37:24.292Z,13.43
2017-11-21T14:39:51.859Z,12.27
2017-11-21T14:42:19.420Z,15.23
2017-11-21T14:44:46.988Z,10.77
2017-11-21T14:47:14.558Z,14.93
2017-11-21T14:49:42.114Z,15.17
2017-11-21T14:52:09.677Z,10.80
2017-11-21T14:54:37.234Z,15.30
2017-11-21T14:57:04.797Z,10.97
2017-11-21T14:59:32.385Z,9.37
2017-11-21T15:01:59.946Z,10.67
2017-11-21T15:04:27.518Z,10.03
2017-11-21T15:06:55.115Z,10.40
2017-11-21T15:09:22.689Z,11.60
2017-11-21T15:11:50.258Z,9.27
2017-11-21T15:14:17.818Z,11.83
2017-11-21T15:16:45.387Z,17.00
2017-11-21T15:19:12.992Z,16.97
2017-11-21T15:21:40.557Z,20.60
2017-11-21T15:24:08.200Z,22.33
2017-11-21T15:26:35.770Z,22.40
2017-11-21T15:29:03.334Z,15.07
2017-11-21T15:31:30.898Z,15.70
2017-11-21T15:33:58.468Z,16.00
2017-11-21T15:36:26.037Z,14.50
2017-11-21T15:38:53.614Z,11.43
2017-11-21T15:41:21.287Z,13.33
2017-11-21T15:43:48.856Z,13.87
2017-11-21T15:46:16.449Z,13.30
2017-11-21T15:48:44.947Z,17.03
2017-11-21T15:51:12.646Z,18.47
2017-11-21T15:53:40.218Z,14.77
2017-11-21T15:56:07.786Z,20.33
2017-11-21T15:58:35.356Z,18.90
2017-11-21T16:01:02.935Z,16.47
2017-11-21T16:03:30.501Z,17.73
2017-11-21T16:05:58.075Z,21.07
2017-11-21T16:08:25.653Z,18.77
2017-11-21T16:10:53.218Z,22.37
2017-11-21T16:13:20.821Z,30.40
2017-11-21T16:15:48.396Z,25.40
2017-11-21T16:18:15.961Z,23.50
2017-11-21T16:20:43.526Z,26.20
2017-11-21T16:23:11.097Z,19.07
2017-11-21T16:25:38.665Z,19.13
2017-11-21T16:28:06.234Z,21.73
2017-11-21T16:30:33.801Z,17.87
2017-11-21T16:33:01.371Z,17.63
2017-11-21T16:35:28.975Z,17.80
2017-11-21T16:37:56.540Z,17.70
2017-11-21T16:40:24.110Z,16.60
2017-11-21T16:42:51.689Z,21.00
2017-11-21T16:45:19.249Z,18.97
2017-11-21T16:47:46.814Z,17.10
2017-11-21T16:50:14.375Z,18.70
2017-11-21T16:52:42.874Z,17.87
2017-11-21T16:55:10.487Z,21.10
2017-11-21T16:57:38.054Z,14.80
2017-11-21T17:00:05.630Z,19.90
2017-11-21T17:02:33.203Z,19.43
2017-11-21T17:05:00.778Z,22.00
2017-11-21T17:07:28.345Z,19.13
2017-11-21T17:09:55.906Z,24.70
2017-11-21T17:12:23.512Z,35.97
2017-11-21T17:14:51.083Z,28.17
2017-11-21T17:17:18.654Z,24.17
2017-11-21T17:19:46.222Z,24.63
2017-11-21T17:22:13.828Z,21.80
2017-11-21T17:24:41.400Z,22.07
2017-11-21T17:27:08.970Z,26.17
2017-11-21T17:29:37.010Z,20.20
2017-11-21T17:32:04.610Z,14.90
2017-11-21T17:34:34.967Z,18.90
2017-11-21T17:37:03.982Z,20.53
2017-11-21T17:39:31.550Z,19.40
2017-11-21T17:41:59.135Z,19.17
2017-11-21T17:44:26.702Z,17.17
2017-11-21T17:46:54.315Z,23.90
2017-11-21T17:49:21.914Z,21.77
2017-11-21T17:51:49.558Z,18.73
2017-11-21T17:54:17.186Z,20.37
2017-11-21T17:56:44.757Z,15.20
2017-11-21T17:59:12.327Z,18.40
2017-11-21T18:01:41.915Z,21.63
2017-11-21T18:04:10.831Z,19.97
2017-11-21T18:06:38.454Z,18.70
2017-11-21T18:09:07.056Z,19.20
2017-11-21T18:11:34.756Z,18.63
2017-11-21T18:14:02.324Z,22.97
2017-11-21T18:16:29.899Z,21.30
2017-11-21T18:18:57.474Z,16.40
2017-11-21T18:21:25.051Z,18.07
2017-11-21T18:23:52.624Z,17.07
2017-11-21T18:26:20.197Z,16.43
2017-11-21T18:28:47.771Z,20.67
2017-11-21T18:31:15.352Z,20.70
2017-11-21T18:33:42.910Z,19.60
2017-11-21T18:36:10.471Z,21.77
2017-11-21T18:38:38.087Z,20.03
2017-11-21T18:41:06.131Z,14.53
2017-11-21T18:43:33.809Z,18.93
2017-11-21T18:46:01.391Z,17.60
2017-11-21T18:48:30.595Z,15.70
2017-11-21T18:50:59.081Z,15.97
2017-11-21T18:53:26.724Z,21.47
2017-11-21T18:55:55.175Z,16.37
2017-11-21T18:58:22.763Z,20.70
2017-11-21T19:00:50.380Z,18.10
2017-11-21T19:03:17.949Z,18.23
2017-11-21T19:05:45.511Z,19.30
2017-11-21T19:08:13.175Z,17.13
2017-11-21T19:10:40.839Z,14.67
2017-11-21T19:13:08.516Z,11.97
2017-11-21T19:15:36.082Z,12.43
2017-11-21T19:18:03.715Z,12.23
2017-11-21T19:20:31.325Z,12.43
2017-11-21T19:22:58.902Z,11.00
2017-11-21T19:25:26.504Z,9.30
2017-11-21T19:27:54.075Z,12.03
2017-11-21T19:30:21.692Z,10.17
2017-11-21T19:32:49.255Z,13.43
2017-11-21T19:35:16.829Z,9.63
2017-11-21T19:37:44.398Z,15.30
2017-11-21T19:40:11.969Z,10.87
2017-11-21T19:42:39.542Z,13.63
2017-11-21T19:45:07.113Z,11.20
2017-11-21T19:47:34.682Z,11.50
2017-11-21T19:50:02.246Z,14.00
2017-11-21T19:52:29.810Z,14.00
2017-11-21T19:54:57.370Z,10.97
2017-11-21T19:57:26.126Z,10.50
2017-11-21T19:59:53.740Z,11.17
2017-11-21T20:02:21.303Z,11.30
2017-11-21T20:04:48.862Z,10.87
2017-11-21T20:07:16.418Z,10.17
2017-11-21T20:09:44.025Z,10.60
2017-11-21T20:12:11.584Z,10.53
2017-11-21T20:14:39.245Z,10.73
2017-11-21T20:17:06.850Z,13.47
2017-11-21T20:19:34.425Z,9.23
2017-11-21T20:22:01.992Z,13.70
2017-11-21T20:24:29.551Z,9.23
2017-11-21T20:26:57.119Z,9.70
2017-11-21T20:29:24.714Z,8.43
2017-11-21T20:31:52.294Z,10.43
2017-11-21T20:34:19.898Z,14.60
2017-11-21T20:36:47.474Z,16.70
2017-11-21T20:39:15.089Z,15.47
2017-11-21T20:41:42.718Z,12.23
2017-11-21T20:44:10.297Z,13.60
2017-11-21T20:46:37.875Z,10.53
2017-11-21T20:49:05.442Z,12.93
2017-11-21T20:51:33.069Z,10.37
2017-11-21T20:54:00.733Z,11.17
2017-11-21T20:56:28.309Z,10.40
2017-11-21T20:58:55.956Z,10.90
2017-11-21T21:01:23.562Z,9.33
2017-11-21T21:03:51.128Z,9.93
2017-11-21T21:06:18.735Z,8.83
2017-11-21T21:08:46.395Z,9.97
2017-11-21T21:11:13.995Z,9.00
2017-11-21T21:13:41.628Z,12.83
2017-11-21T21:16:09.195Z,9.70
2017-11-21T21:18:36.847Z,8.87
2017-11-21T21:21:04.506Z,10.20
2017-11-21T21:23:32.069Z,7.37
2017-11-21T21:25:59.635Z,6.53
2017-11-21T21:28:27.210Z,9.27
2017-11-21T21:30:54.777Z,8.33
2017-11-21T21:33:22.340Z,6.80
2017-11-21T21:35:49.908Z,7.67
2017-11-21T21:38:18.704Z,8.80
2017-11-21T21:40:46.292Z,7.90
2017-11-21T21:43:13.858Z,11.00
2017-11-21T21:45:41.418Z,8.70
2017-11-21T21:48:08.977Z,7.40
2017-11-21T21:50:36.538Z,10.03
2017-11-21T21:53:04.238Z,8.50
2017-11-21T21:55:31.798Z,8.50
2017-11-21T21:58:05.949Z,9.00
2017-11-21T22:00:33.570Z,9.03
2017-11-21T22:03:02.255Z,9.90
2017-11-21T22:05:29.810Z,6.60
2017-11-21T22:08:00.205Z,10.13
2017-11-21T22:10:28.611Z,7.90
2017-11-21T22:13:13.246Z,7.20
2017-11-21T22:15:41.720Z,8.47
2017-11-21T22:18:09.514Z,9.43
2017-11-21T22:20:37.074Z,8.73
2017-11-21T22:23:04.718Z,11.30
2017-11-21T22:28:06.223Z,8.07
2017-11-21T22:30:33.794Z,8.93
2017-11-21T22:33:01.361Z,10.43
2017-11-21T22:35:28.926Z,11.60
2017-11-21T22:37:56.534Z,12.30
2017-11-21T22:40:24.093Z,13.93
2017-11-21T22:42:51.655Z,9.70
2017-11-21T22:45:19.221Z,11.03
2017-11-21T22:47:46.778Z,11.40
2017-11-21T22:50:14.381Z,15.20
2017-11-21T22:52:41.943Z,11.10
2017-11-21T22:55:09.510Z,10.43
2017-11-21T22:57:37.114Z,13.37
2017-11-21T23:00:04.679Z,11.40
2017-11-21T23:02:32.242Z,9.47
2017-11-21T23:04:59.801Z,10.67
2017-11-21T23:07:27.362Z,9.10
2017-11-21T23:09:54.921Z,15.30
2017-11-21T23:12:22.490Z,11.90
2017-11-21T23:14:50.086Z,12.33
2017-11-21T23:17:17.653Z,13.63
2017-11-21T23:19:45.241Z,9.27
2017-11-21T23:22:12.797Z,13.77
2017-11-21T23:24:40.393Z,12.97
2017-11-21T23:27:07.965Z,11.63
2017-11-21T23:29:35.570Z,24.90
2017-11-21T23:32:03.129Z,11.03
2017-11-21T23:34:30.693Z,14.93
2017-11-21T23:36:58.262Z,14.80
2017-11-21T23:39:25.852Z,10.80
2017-11-21T23:41:53.411Z,18.20
2017-11-21T23:44:20.975Z,14.20
2017-11-21T23:46:48.536Z,13.67
2017-11-21T23:49:16.101Z,10.80
2017-11-21T23:51:43.663Z,15.40
2017-11-21T23:54:11.227Z,12.97
2017-11-21T23:56:38.786Z,11.67
2017-11-21T23:59:06.345Z,13.87
